Time;durP1;ratioP1;P1;durP2;ratioP2;P2;SDS_P1;SDS_P2;PMS_P1;PMS_P2;Temp;Humidity;BMP_temperature;BMP_pressure;BME280_temperature;BME280_humidity;BME280_pressure;Samples;Min_cycle;Max_cycle;Signal;HPM_P1;HPM_P2
2022/06/21 00:01:27;;;;;;;3.33;1.20;;;13.90;80.50;;;;;;5059993;28;20087;-59
2022/06/21 00:03:54;;;;;;;4.68;1.77;;;13.90;80.00;;;;;;5089835;28;20032;-59
2022/06/21 00:06:22;;;;;;;2.38;1.23;;;13.90;80.10;;;;;;5070490;28;20013;-59
2022/06/21 00:08:48;;;;;;;2.95;1.83;;;13.80;80.30;;;;;;5063245;28;20036;-59
2022/06/21 00:11:27;;;;;;;2.17;1.27;;;13.80;80.30;;;;;;5062952;28;20099;-59
2022/06/21 00:13:53;;;;;;;2.92;1.33;;;13.80;80.50;;;;;;5061539;28;20473;-59
2022/06/21 00:16:19;;;;;;;2.83;1.95;;;13.80;80.70;;;;;;5055430;28;20542;-59
2022/06/21 00:18:46;;;;;;;3.03;1.33;;;13.70;81.00;;;;;;5067824;28;20028;-59
2022/06/21 00:21:25;;;;;;;4.15;1.80;;;13.70;81.00;;;;;;5055038;28;20104;-59
2022/06/21 00:23:53;;;;;;;2.80;1.60;;;13.70;81.20;;;;;;5056325;28;20070;-59
2022/06/21 00:26:21;;;;;;;4.15;1.60;;;13.60;81.40;;;;;;5054669;28;20013;-59
2022/06/21 00:28:47;;;;;;;2.60;1.50;;;13.60;81.50;;;;;;5055574;28;20100;-59
2022/06/21 00:31:21;;;;;;;3.90;1.40;;;13.60;81.70;;;;;;5087026;28;20503;-59
2022/06/21 00:33:48;;;;;;;3.88;1.55;;;13.60;81.90;;;;;;5059350;28;20012;-59
2022/06/21 00:36:21;;;;;;;3.88;1.70;;;13.50;82.00;;;;;;5065193;28;20029;-59
2022/06/21 00:38:47;;;;;;;3.15;1.42;;;13.50;82.30;;;;;;5053281;28;20126;-59
2022/06/21 00:41:15;;;;;;;4.97;1.77;;;13.50;82.60;;;;;;5068953;28;20068;-59
2022/06/21 00:43:45;;;;;;;3.60;1.40;;;13.40;82.60;;;;;;5053110;28;20106;-59
2022/06/21 00:46:29;;;;;;;3.72;1.60;;;13.40;83.40;;;;;;5068446;28;20021;-59
2022/06/21 00:48:55;;;;;;;4.20;1.52;;;13.40;82.80;;;;;;5066053;28;20571;-59
2022/06/21 00:51:35;;;;;;;3.10;1.35;;;13.40;83.00;;;;;;5052541;28;20067;-59
2022/06/21 00:54:09;;;;;;;2.38;1.35;;;13.40;83.20;;;;;;5053056;28;20040;-59
2022/06/21 00:56:41;;;;;;;4.15;2.28;;;13.40;83.30;;;;;;5055990;28;20044;-59
2022/06/21 00:59:19;;;;;;;3.45;1.83;;;13.30;83.40;;;;;;5072741;28;20025;-59
2022/06/21 01:01:46;;;;;;;3.63;1.75;;;13.30;83.70;;;;;;5072211;28;20108;-59
2022/06/21 01:04:25;;;;;;;5.10;1.73;;;13.30;83.90;;;;;;5060279;28;20032;-59
2022/06/21 01:06:56;;;;;;;4.25;1.83;;;13.30;84.20;;;;;;5052845;28;20052;-59
2022/06/21 01:09:33;;;;;;;3.67;1.73;;;13.20;84.30;;;;;;5053256;28;20074;-59
2022/06/21 01:12:10;;;;;;;4.53;1.60;;;13.20;84.50;;;;;;5072671;28;20092;-59
2022/06/21 01:14:40;;;;;;;3.85;1.65;;;13.20;84.80;;;;;;5069161;28;20036;-59
2022/06/21 01:17:09;;;;;;;4.28;1.90;;;13.10;85.00;;;;;;5071215;28;20082;-59
2022/06/21 01:19:46;;;;;;;3.35;1.85;;;13.10;85.30;;;;;;5087838;28;20025;-59
2022/06/21 01:22:26;;;;;;;4.55;1.95;;;13.10;85.50;;;;;;5070886;28;20024;-59
2022/06/21 01:25:10;;;;;;;;;;;13.00;85.70;;;;;;5072247;28;20166;-59
2022/06/21 01:27:37;;;;;;;3.17;1.35;;;12.90;85.70;;;;;;5071653;28;20277;-59
2022/06/21 01:30:05;;;;;;;2.78;1.63;;;12.80;86.10;;;;;;5071208;28;20055;-59
2022/06/21 01:32:30;;;;;;;2.22;1.48;;;12.80;86.10;;;;;;5072283;28;20025;-59
2022/06/21 01:34:56;;;;;;;3.33;1.42;;;12.80;86.10;;;;;;5071041;28;20032;-59
2022/06/21 01:37:28;;;;;;;4.03;2.25;;;12.80;86.30;;;;;;5058587;28;20036;-59
2022/06/21 01:40:01;;;;;;;4.00;2.20;;;12.80;86.40;;;;;;5070888;28;20186;-59
2022/06/21 01:42:32;;;;;;;3.00;1.70;;;12.80;86.60;;;;;;5072185;28;20122;-59
2022/06/21 01:45:02;;;;;;;3.80;1.70;;;12.70;86.80;;;;;;5060005;28;20481;-59
2022/06/21 01:47:35;;;;;;;2.67;1.70;;;12.60;87.00;;;;;;5076249;28;20036;-59
2022/06/21 01:50:04;;;;;;;2.05;1.40;;;12.60;87.20;;;;;;5076013;28;20033;-59
2022/06/21 01:52:34;;;;;;;2.05;1.15;;;12.50;87.40;;;;;;5076038;28;20489;-59
2022/06/21 01:55:05;;;;;;;3.25;1.10;;;12.50;87.70;;;;;;5075357;28;20488;-59
2022/06/21 01:57:31;;;;;;;3.15;1.50;;;12.40;88.20;;;;;;5074893;28;20047;-59
2022/06/21 01:59:58;;;;;;;3.08;1.42;;;12.40;88.40;;;;;;5075326;28;20020;-59
2022/06/21 02:02:31;;;;;;;3.20;1.48;;;12.40;88.40;;;;;;5074941;28;20033;-59
2022/06/21 02:05:00;;;;;;;3.95;1.77;;;12.30;88.30;;;;;;5057883;28;20032;-59
2022/06/21 02:07:42;;;;;;;2.92;1.23;;;12.30;88.50;;;;;;5069742;28;20455;-59
2022/06/21 02:10:10;;;;;;;3.30;1.30;;;12.30;88.60;;;;;;5076054;28;20120;-59
2022/06/21 02:12:46;;;;;;;5.68;1.67;;;12.20;88.70;;;;;;5076308;28;20023;-59
2022/06/21 02:15:21;;;;;;;2.88;1.17;;;12.20;88.90;;;;;;5071119;28;20067;-59
2022/06/21 02:17:48;;;;;;;1.27;1.08;;;12.20;89.20;;;;;;5074667;28;20056;-58
2022/06/21 02:20:31;;;;;;;2.63;1.10;;;12.10;89.40;;;;;;5067611;28;20465;-59
2022/06/21 02:22:57;;;;;;;3.38;1.20;;;12.10;89.60;;;;;;5067718;28;20484;-59
2022/06/21 02:25:24;;;;;;;1.10;0.90;;;12.00;89.80;;;;;;5073578;28;20026;-59
2022/06/21 02:27:53;;;;;;;1.80;1.00;;;12.00;90.00;;;;;;5069522;28;20016;-59
2022/06/21 02:30:21;;;;;;;1.50;1.00;;;11.90;90.00;;;;;;5062212;28;20017;-59
2022/06/21 02:32:48;;;;;;;2.20;1.30;;;11.90;90.10;;;;;;5062833;28;20016;-59
2022/06/21 02:35:32;;;;;;;1.67;1.00;;;11.90;90.10;;;;;;5075241;28;20095;-59
2022/06/21 02:37:59;;;;;;;2.25;1.20;;;11.90;90.10;;;;;;5074287;28;20480;-59
2022/06/21 02:40:33;;;;;;;1.88;1.42;;;11.80;90.10;;;;;;5059844;28;20059;-59
2022/06/21 02:43:19;;;;;;;2.28;1.63;;;11.80;90.20;;;;;;5075072;28;20036;-58
2022/06/21 02:46:00;;;;;;;3.08;1.73;;;11.80;90.20;;;;;;5073640;28;20078;-59
2022/06/21 02:48:34;;;;;;;1.92;1.20;;;11.80;90.20;;;;;;5063869;28;20028;-59
2022/06/21 02:51:08;;;;;;;1.90;1.40;;;11.70;90.20;;;;;;5062204;28;20021;-58
2022/06/21 02:53:49;;;;;;;4.20;1.83;;;11.70;90.20;;;;;;5065138;28;20469;-59
2022/06/21 02:56:23;;;;;;;3.42;1.60;;;11.60;90.20;;;;;;5055183;28;20045;-59
2022/06/21 02:58:51;;;;;;;3.13;1.60;;;11.60;90.30;;;;;;5055832;28;20020;-59
2022/06/21 03:01:31;;;;;;;3.92;1.80;;;11.60;90.30;;;;;;5054209;28;20460;-59
2022/06/21 03:03:57;;;;;;;;;;;11.60;90.40;;;;;;5056142;28;20060;-59
2022/06/21 03:06:23;;;;;;;3.50;1.70;;;11.50;90.30;;;;;;5059416;28;19908;-59
2022/06/21 03:09:05;;;;;;;2.83;1.77;;;11.40;90.50;;;;;;5062005;28;20578;-59
2022/06/21 03:11:39;;;;;;;3.20;1.67;;;11.40;90.50;;;;;;5063548;28;20021;-59
2022/06/21 03:14:07;;;;;;;2.47;1.75;;;11.40;90.50;;;;;;5089054;28;20480;-59
2022/06/21 03:16:33;;;;;;;2.40;1.80;;;11.50;90.60;;;;;;5072303;28;20032;-59
2022/06/21 03:19:03;;;;;;;3.33;2.20;;;11.40;90.60;;;;;;5073332;28;20028;-59
2022/06/21 03:21:35;;;;;;;3.05;1.95;;;11.50;90.60;;;;;;5073953;28;20036;-59
2022/06/21 03:24:07;;;;;;;4.43;2.08;;;11.50;90.90;;;;;;5062589;28;20037;-59
2022/06/21 03:26:33;;;;;;;3.40;1.85;;;11.40;90.70;;;;;;5062186;28;20054;-59
2022/06/21 03:28:59;;;;;;;2.45;1.70;;;11.40;90.70;;;;;;5074366;28;20020;-59
2022/06/21 03:31:30;;;;;;;2.70;1.83;;;11.40;90.80;;;;;;5055552;28;20449;-59
2022/06/21 03:34:01;;;;;;;3.63;2.28;;;11.30;90.80;;;;;;5071444;28;20029;-59
2022/06/21 03:36:27;;;;;;;2.75;1.80;;;11.30;90.90;;;;;;5055549;28;20059;-59
2022/06/21 03:39:09;;;;;;;3.33;1.85;;;11.30;90.90;;;;;;5056750;28;20063;-59
2022/06/21 03:41:43;;;;;;;2.25;1.58;;;11.30;91.20;;;;;;5055662;28;20124;-59
2022/06/21 03:44:31;;;;;;;2.28;1.52;;;11.20;91.10;;;;;;5060884;28;20059;-59
2022/06/21 03:47:16;;;;;;;2.55;1.50;;;11.20;91.10;;;;;;5059765;28;20020;-59
2022/06/21 03:50:05;;;;;;;3.08;1.67;;;11.20;91.20;;;;;;5054572;28;20025;-59
2022/06/21 03:53:04;;;;;;;3.67;2.10;;;11.20;91.30;;;;;;5055885;28;20040;-59
2022/06/21 03:55:43;;;;;;;3.90;1.37;;;11.20;91.30;;;;;;5055514;28;20501;-59
2022/06/21 03:58:22;;;;;;;3.45;1.40;;;11.20;91.30;;;;;;5056022;28;20048;-58
2022/06/21 04:00:58;;;;;;;3.63;1.45;;;11.20;91.40;;;;;;5065170;28;20411;-59
2022/06/21 04:03:46;;;;;;;2.58;1.60;;;11.10;91.40;;;;;;5056421;28;20020;-59
2022/06/21 04:06:18;;;;;;;3.63;1.67;;;11.20;91.30;;;;;;5055948;28;20111;-59
2022/06/21 04:09:05;;;;;;;2.33;1.95;;;11.10;91.40;;;;;;5054451;28;20024;-58
2022/06/21 04:12:04;;;;;;;4.68;1.70;;;11.20;91.40;;;;;;5053555;28;20017;-58
2022/06/21 04:14:51;;;;;;;3.93;1.87;;;11.20;91.40;;;;;;5056150;28;20029;-58
2022/06/21 04:17:44;;;;;;;1.73;1.38;;;11.20;91.50;;;;;;5062787;28;20275;-59
2022/06/21 04:20:25;;;;;;;2.00;1.40;;;10.90;92.20;;;;;;5077679;28;20028;-58
2022/06/21 04:23:20;;;;;;;2.25;1.30;;;10.70;92.80;;;;;;5067786;28;20047;-59
2022/06/21 04:26:03;;;;;;;1.80;1.20;;;10.70;93.00;;;;;;5056022;28;20017;-59
2022/06/21 04:28:32;;;;;;;1.67;1.00;;;10.80;93.00;;;;;;5072352;28;20427;-58
2022/06/21 04:31:20;;;;;;;2.63;1.58;;;10.80;92.90;;;;;;5088052;28;20028;-58
2022/06/21 04:34:13;;;;;;;3.15;1.92;;;10.90;92.80;;;;;;5054943;28;20037;-58
2022/06/21 04:36:45;;;;;;;3.95;2.20;;;11.00;92.70;;;;;;5046960;28;20142;-59
2022/06/21 04:39:56;;;;;;;4.18;1.90;;;11.00;92.80;;;;;;5056904;28;20032;-58
2022/06/21 04:42:39;;;;;;;5.18;3.17;;;11.10;92.80;;;;;;5016309;28;20037;-59
2022/06/21 04:45:12;;;;;;;3.78;3.22;;;11.20;93.00;;;;;;5005357;28;20021;-59
2022/06/21 04:47:50;;;;;;;3.97;2.65;;;11.20;93.20;;;;;;5042804;28;20048;-59
2022/06/21 04:50:36;;;;;;;2.95;2.40;;;11.20;93.40;;;;;;5066404;28;20468;-59
2022/06/21 04:53:20;;;;;;;3.22;2.58;;;11.20;93.50;;;;;;5055153;28;20477;-59
2022/06/21 04:56:10;;;;;;;3.97;2.28;;;11.40;93.60;;;;;;5056994;28;20041;-59
2022/06/21 04:58:36;;;;;;;4.65;3.15;;;11.50;93.70;;;;;;5056564;28;20025;-59
2022/06/21 05:01:42;;;;;;;4.75;2.70;;;11.50;93.80;;;;;;5060977;28;20051;-59
2022/06/21 05:05:42;;;;;;;6.97;2.85;;;11.60;94.00;;;;;;5058750;28;20043;-59
2022/06/21 05:08:39;;;;;;;3.08;2.25;;;11.70;94.00;;;;;;5048588;28;20041;-59
2022/06/21 05:11:05;;;;;;;3.97;2.65;;;11.70;94.20;;;;;;5070351;28;20480;-59
2022/06/21 05:13:45;;;;;;;3.80;2.05;;;11.80;94.50;;;;;;5089385;28;20032;-59
2022/06/21 05:16:22;;;;;;;3.97;2.47;;;11.90;94.70;;;;;;5057725;28;20437;-59
2022/06/21 05:19:02;;;;;;;4.68;2.47;;;12.00;94.90;;;;;;5077213;28;20487;-59
2022/06/21 05:21:41;;;;;;;5.70;2.13;;;12.00;95.20;;;;;;5071300;28;20033;-59
2022/06/21 05:24:09;;;;;;;4.30;1.98;;;12.10;95.40;;;;;;5059500;28;20025;-59
2022/06/21 05:27:04;;;;;;;4.38;1.92;;;12.20;95.60;;;;;;5080844;28;20082;-59
2022/06/21 05:33:21;;;;;;;3.75;1.25;;;12.40;95.80;;;;;;5015867;28;20025;-59
2022/06/21 05:35:52;;;;;;;5.38;1.17;;;12.50;95.80;;;;;;5052917;28;20071;-59
2022/06/21 05:38:25;;;;;;;2.35;1.20;;;12.50;95.90;;;;;;5066938;28;20028;-59
2022/06/21 05:41:32;;;;;;;3.30;1.60;;;12.60;96.00;;;;;;5058730;28;20060;-59
2022/06/21 05:44:29;;;;;;;7.70;2.45;;;12.70;96.10;;;;;;5063177;28;20033;-59
2022/06/21 05:47:02;;;;;;;7.25;1.83;;;12.80;96.60;;;;;;5044418;28;20045;-59
2022/06/21 05:53:12;;;;;;;5.40;1.60;;;13.00;96.70;;;;;;5034848;28;20524;-59
2022/06/21 05:55:42;;;;;;;6.03;1.73;;;13.10;96.80;;;;;;5072664;28;20094;-59
2022/06/21 05:58:16;;;;;;;9.27;2.10;;;13.10;97.10;;;;;;5055237;28;20499;-59
2022/06/21 06:00:55;;;;;;;3.55;1.40;;;13.20;97.20;;;;;;5053862;28;20021;-59
2022/06/21 06:03:28;;;;;;;6.70;1.60;;;13.30;97.10;;;;;;5075774;28;20029;-59
2022/06/21 06:06:08;;;;;;;;;;;;;;;;;;;;;
2022/06/21 06:08:56;;;;;;;;;;;13.40;97.10;;;;;;5061886;28;20028;-59
2022/06/21 06:11:57;;;;;;;6.60;2.70;;;13.40;97.10;;;;;;5058810;28;19948;-59
2022/06/21 06:14:16;;;;;;;6.35;1.60;;;13.50;97.10;;;;;;5054177;28;20032;-59
2022/06/21 06:16:44;;;;;;;4.95;1.52;;;13.60;96.90;;;;;;5052011;28;20031;-60
2022/06/21 06:19:18;;;;;;;6.23;1.43;;;13.70;97.00;;;;;;5051700;28;20044;-59
2022/06/21 06:22:12;;;;;;;5.38;1.83;;;13.80;96.50;;;;;;5051997;28;20044;-59
2022/06/21 06:25:11;;;;;;;3.42;1.27;;;13.90;96.30;;;;;;5065980;28;20052;-59
2022/06/21 06:27:47;;;;;;;5.57;1.30;;;13.90;95.70;;;;;;5077505;28;20070;-59
2022/06/21 06:30:18;;;;;;;4.50;1.33;;;14.00;95.50;;;;;;5072162;28;20047;-59
2022/06/21 06:32:49;;;;;;;6.55;1.50;;;14.10;95.40;;;;;;5077228;28;20066;-59
2022/06/21 06:35:20;;;;;;;4.07;1.10;;;14.20;95.20;;;;;;5075272;28;20122;-59
2022/06/21 06:37:46;;;;;;;2.55;1.05;;;14.30;94.80;;;;;;5078534;28;20123;-59
2022/06/21 06:40:23;;;;;;;6.75;1.60;;;14.30;94.60;;;;;;5114927;27;20104;-59
2022/06/21 06:42:55;;;;;;;5.30;1.17;;;14.50;93.70;;;;;;5065343;28;20032;-59
2022/06/21 06:45:26;;;;;;;6.65;1.17;;;14.50;93.40;;;;;;5066063;28;20021;-59
2022/06/21 06:47:56;;;;;;;5.75;0.93;;;14.50;93.60;;;;;;5063926;28;20108;-59
2022/06/21 06:50:27;;;;;;;4.63;1.30;;;14.60;93.20;;;;;;5073724;28;20028;-59
2022/06/21 06:53:18;;;;;;;7.68;1.23;;;14.70;93.00;;;;;;5062595;28;20071;-59
2022/06/21 06:55:47;;;;;;;5.35;1.30;;;14.70;92.90;;;;;;5068021;28;20044;-59
2022/06/21 06:58:25;;;;;;;4.53;1.05;;;14.80;92.90;;;;;;5066435;28;20112;-59
2022/06/21 07:01:10;;;;;;;4.35;1.10;;;14.80;92.30;;;;;;5076261;28;20106;-59
2022/06/21 07:03:50;;;;;;;5.03;1.38;;;14.80;92.20;;;;;;5073774;28;20056;-59
2022/06/21 07:06:40;;;;;;;3.65;0.82;;;14.90;91.70;;;;;;5104787;28;20016;-59
2022/06/21 07:09:16;;;;;;;5.72;1.17;;;15.00;91.50;;;;;;5063645;28;20028;-59
2022/06/21 07:11:42;;;;;;;6.60;1.55;;;15.00;92.00;;;;;;5057780;28;20021;-59
2022/06/21 07:14:22;;;;;;;4.15;1.67;;;15.10;91.70;;;;;;5070391;28;20066;-59
2022/06/21 07:17:10;;;;;;;;;;;;;;;;;;;;;
2022/06/21 07:20:09;;;;;;;7.25;1.80;;;15.20;91.20;;;;;;5074271;28;20376;-59
2022/06/21 07:22:36;;;;;;;4.95;1.10;;;15.30;91.10;;;;;;5052785;28;20116;-59
2022/06/21 07:25:12;;;;;;;2.28;0.90;;;15.30;90.50;;;;;;5042149;28;20063;-59
2022/06/21 07:27:41;;;;;;;5.68;1.10;;;15.40;90.30;;;;;;5072640;28;20038;-59
2022/06/21 07:33:19;;;;;;;5.50;1.00;;;15.70;90.20;;;;;;5052594;28;20031;-59
2022/06/21 07:35:49;;;;;;;3.58;1.20;;;15.70;89.80;;;;;;5084643;28;20035;-59
2022/06/21 07:38:41;;;;;;;5.80;1.30;;;15.70;89.80;;;;;;5074128;28;20108;-59
2022/06/21 07:41:31;;;;;;;3.90;1.23;;;15.80;89.50;;;;;;5073911;28;20029;-59
2022/06/21 07:44:07;;;;;;;7.78;1.55;;;15.90;89.50;;;;;;5062552;28;20111;-59
2022/06/21 07:46:41;;;;;;;4.85;1.08;;;16.00;89.60;;;;;;5079989;28;20143;-59
2022/06/21 07:49:25;;;;;;;4.38;1.33;;;16.10;88.90;;;;;;5052802;28;20381;-59
2022/06/21 07:52:01;;;;;;;5.45;1.20;;;16.20;87.80;;;;;;5070617;28;20028;-59
2022/06/21 07:54:30;;;;;;;3.78;1.27;;;16.20;87.40;;;;;;5082684;28;20016;-59
2022/06/21 07:57:03;;;;;;;5.22;1.13;;;16.30;87.40;;;;;;5077283;28;20496;-59
2022/06/21 07:59:36;;;;;;;4.75;1.10;;;16.40;87.40;;;;;;5072650;28;20382;-59
2022/06/21 08:08:01;;;;;;;3.40;0.88;;;16.70;87.00;;;;;;5078502;28;20116;-58
2022/06/21 08:10:57;;;;;;;6.28;0.95;;;16.80;85.90;;;;;;5073455;28;20044;-58
2022/06/21 08:13:22;;;;;;;2.13;0.90;;;16.90;84.60;;;;;;5069295;28;20385;-58
2022/06/21 08:15:58;;;;;;;2.58;0.70;;;17.00;84.40;;;;;;5080139;28;20040;-58
2022/06/21 08:18:39;;;;;;;3.78;0.80;;;17.10;84.20;;;;;;5063643;28;20025;-58
2022/06/21 08:21:10;;;;;;;3.10;1.08;;;17.30;84.30;;;;;;5073207;28;20471;-58
2022/06/21 08:24:03;;;;;;;5.53;0.90;;;17.40;83.90;;;;;;5066650;28;20032;-58
2022/06/21 08:26:51;;;;;;;2.45;0.98;;;17.40;80.30;;;;;;5065245;28;20063;-58
2022/06/21 08:29:28;;;;;;;4.00;0.77;;;17.40;79.30;;;;;;5071881;28;20383;-58
2022/06/21 08:32:00;;;;;;;3.85;0.52;;;17.40;79.90;;;;;;5073141;28;20048;-58
2022/06/21 08:34:37;;;;;;;2.28;0.73;;;17.50;80.10;;;;;;5071774;28;20028;-58
2022/06/21 08:37:30;;;;;;;3.58;0.93;;;17.60;79.40;;;;;;5074530;28;20028;-58
2022/06/21 08:40:24;;;;;;;5.30;1.10;;;17.70;79.00;;;;;;5076070;28;20380;-58
2022/06/21 08:43:04;;;;;;;3.88;0.70;;;17.60;78.30;;;;;;5066246;28;20025;-58
2022/06/21 08:46:03;;;;;;;3.58;0.65;;;17.60;78.10;;;;;;5078104;28;20111;-59
2022/06/21 08:49:00;;;;;;;2.53;0.70;;;17.80;78.10;;;;;;5077750;28;20111;-58
2022/06/21 08:51:44;;;;;;;3.60;0.80;;;17.90;77.80;;;;;;5085604;28;20370;-59
2022/06/21 08:54:37;;;;;;;4.88;1.15;;;18.20;77.60;;;;;;5062851;28;20033;-59
2022/06/21 08:57:10;;;;;;;2.63;0.80;;;18.40;77.10;;;;;;5069792;28;20177;-59
2022/06/21 08:59:41;;;;;;;4.15;0.90;;;18.60;76.30;;;;;;5074518;28;20103;-59
2022/06/21 09:02:33;;;;;;;4.57;0.80;;;18.70;75.30;;;;;;5067934;28;20021;-60
2022/06/21 09:05:29;;;;;;;2.53;0.70;;;18.90;75.20;;;;;;5070906;28;20033;-60
2022/06/21 09:08:15;;;;;;;4.30;0.80;;;19.10;74.90;;;;;;5071945;28;20065;-60
2022/06/21 09:11:02;;;;;;;7.53;0.82;;;19.10;72.70;;;;;;5073402;28;20016;-59
2022/06/21 09:14:06;;;;;;;2.72;0.80;;;19.00;73.00;;;;;;5070652;28;20025;-58
2022/06/21 09:16:43;;;;;;;2.55;0.70;;;18.90;72.00;;;;;;5069845;28;20045;-58
2022/06/21 09:19:09;;;;;;;1.40;0.50;;;18.90;72.30;;;;;;5068614;28;20031;-58
2022/06/21 09:21:52;;;;;;;3.17;0.65;;;19.10;72.70;;;;;;5075882;28;20071;-58
2022/06/21 09:25:00;;;;;;;5.10;0.70;;;19.10;72.90;;;;;;5068036;28;20034;-58
2022/06/21 09:27:46;;;;;;;1.40;0.68;;;19.10;70.60;;;;;;5028420;28;20068;-58
2022/06/21 09:30:17;;;;;;;2.38;0.52;;;19.30;71.10;;;;;;5104399;28;20012;-58
2022/06/21 09:33:01;;;;;;;2.28;0.70;;;19.40;70.00;;;;;;5071167;28;20032;-58
2022/06/21 09:35:31;;;;;;;1.67;0.32;;;19.60;70.20;;;;;;5066916;28;20150;-58
2022/06/21 09:38:00;;;;;;;2.00;0.40;;;19.90;69.80;;;;;;5071471;28;20174;-58
2022/06/21 09:40:37;;;;;;;2.20;0.50;;;20.00;69.50;;;;;;5070813;28;20478;-58
2022/06/21 09:43:11;;;;;;;1.25;0.35;;;20.20;69.00;;;;;;5067540;28;20021;-58
2022/06/21 09:45:53;;;;;;;3.22;0.43;;;20.40;68.70;;;;;;5070274;28;20027;-58
2022/06/21 09:48:38;;;;;;;2.63;0.60;;;20.50;68.40;;;;;;5069082;28;20385;-58
2022/06/21 09:51:37;;;;;;;2.22;0.40;;;20.70;68.10;;;;;;5070311;28;20024;-58
2022/06/21 09:54:26;;;;;;;3.42;0.70;;;20.90;67.90;;;;;;5047798;28;20310;-58
2022/06/21 09:57:16;;;;;;;2.63;0.70;;;20.90;67.30;;;;;;5072204;28;20048;-58
2022/06/21 10:00:01;;;;;;;2.55;0.60;;;21.00;67.40;;;;;;5071345;28;20495;-58
2022/06/21 10:02:56;;;;;;;3.42;0.77;;;21.10;67.30;;;;;;5071196;28;20016;-58
2022/06/21 10:09:11;;;;;;;2.45;0.50;;;21.20;67.60;;;;;;5075432;28;20059;-58
2022/06/21 10:11:57;;;;;;;2.35;0.95;;;21.30;66.50;;;;;;5068932;28;20025;-58
2022/06/21 10:14:46;;;;;;;2.70;0.60;;;21.30;64.80;;;;;;5080564;28;20074;-58
2022/06/21 10:17:14;;;;;;;3.03;0.50;;;21.30;64.50;;;;;;5106173;27;20028;-58
2022/06/21 10:20:10;;;;;;;2.13;0.50;;;21.40;64.20;;;;;;5072883;28;20021;-58
2022/06/21 10:23:01;;;;;;;2.67;0.60;;;21.50;64.30;;;;;;5083027;28;20056;-58
2022/06/21 10:25:41;;;;;;;3.33;0.60;;;21.70;63.10;;;;;;5076676;28;20758;-58
2022/06/21 10:28:25;;;;;;;1.10;0.40;;;21.80;62.50;;;;;;5063076;28;20044;-58
2022/06/21 10:31:03;;;;;;;2.97;0.65;;;22.00;61.60;;;;;;5080318;28;20024;-58
2022/06/21 10:33:51;;;;;;;1.58;0.43;;;22.10;60.80;;;;;;5075157;28;20032;-58
2022/06/21 10:36:39;;;;;;;2.15;0.40;;;22.40;60.00;;;;;;5070010;28;20020;-59
2022/06/21 10:39:36;;;;;;;2.67;0.50;;;22.50;59.90;;;;;;5084760;28;20472;-58
2022/06/21 10:45:44;;;;;;;2.28;0.35;;;22.80;58.20;;;;;;5080180;28;20396;-58
2022/06/21 10:49:00;;;;;;;2.88;0.50;;;23.00;57.50;;;;;;5073238;28;20388;-58
2022/06/21 10:51:42;;;;;;;1.60;0.30;;;23.10;56.50;;;;;;5030981;28;20022;-59
2022/06/21 10:54:26;;;;;;;0.85;0.25;;;23.40;55.60;;;;;;5076526;28;20060;-58
2022/06/21 10:57:26;;;;;;;1.85;0.30;;;23.60;55.00;;;;;;5067825;28;20049;-58
2022/06/21 11:09:42;;;;;;;0.95;0.20;;;24.00;52.10;;;;;;5068309;28;19912;-59
2022/06/21 11:15:51;;;;;;;0.73;0.30;;;24.30;51.70;;;;;;5078253;28;20035;-58
2022/06/21 11:18:51;;;;;;;0.75;0.30;;;24.60;51.40;;;;;;5079256;28;20077;-58
2022/06/21 11:21:29;;;;;;;1.52;0.30;;;24.80;51.10;;;;;;5074203;28;20477;-59
2022/06/21 11:24:19;;;;;;;1.00;0.25;;;25.00;50.70;;;;;;5069273;28;20029;-58
2022/06/21 11:26:56;;;;;;;1.92;0.32;;;25.20;50.50;;;;;;5068535;28;20024;-59
2022/06/21 11:29:38;;;;;;;1.35;0.47;;;25.20;49.70;;;;;;5077888;28;20441;-58
2022/06/21 11:32:41;;;;;;;2.60;0.50;;;25.20;50.40;;;;;;5067325;28;20111;-59
2022/06/21 11:35:28;;;;;;;2.92;0.45;;;25.40;50.10;;;;;;5065439;28;20021;-58
2022/06/21 11:38:24;;;;;;;1.15;0.30;;;25.50;49.70;;;;;;5051573;28;20017;-59
2022/06/21 11:42:04;;;;;;;1.60;0.20;;;25.60;49.50;;;;;;5072267;28;20027;-59
2022/06/21 11:44:32;;;;;;;2.55;0.30;;;25.70;49.50;;;;;;5072693;28;20028;-59
2022/06/21 11:47:06;;;;;;;0.43;0.20;;;25.80;50.00;;;;;;5059654;28;20107;-59
2022/06/21 11:49:57;;;;;;;1.35;0.30;;;25.80;49.10;;;;;;5065893;28;20029;-59
2022/06/21 11:53:02;;;;;;;1.85;0.40;;;25.60;48.70;;;;;;5069688;28;20120;-59
2022/06/21 11:55:46;;;;;;;1.80;0.30;;;25.70;49.00;;;;;;5069386;28;20149;-59
2022/06/21 11:58:27;;;;;;;1.48;0.38;;;25.80;48.70;;;;;;5056703;28;20045;-59
2022/06/21 12:00:55;;;;;;;1.20;0.32;;;25.90;48.80;;;;;;5053658;28;20028;-59
2022/06/21 12:03:38;;;;;;;2.05;0.40;;;25.90;48.50;;;;;;5064469;28;20031;-59
2022/06/21 12:06:36;;;;;;;1.23;0.35;;;26.00;48.20;;;;;;5056449;28;20021;-58
2022/06/21 12:09:09;;;;;;;1.48;0.40;;;26.10;48.30;;;;;;5049679;28;20448;-59
2022/06/21 12:12:01;;;;;;;2.47;0.40;;;25.90;46.90;;;;;;5071939;28;20043;-59
2022/06/21 12:14:41;;;;;;;2.30;0.35;;;25.70;47.10;;;;;;5058146;28;20025;-59
2022/06/21 12:17:21;;;;;;;1.83;0.50;;;25.80;47.10;;;;;;5069097;28;20044;-58
2022/06/21 12:19:57;;;;;;;1.38;0.30;;;25.90;45.90;;;;;;5065436;28;20021;-59
2022/06/21 12:22:42;;;;;;;2.88;0.40;;;25.60;45.20;;;;;;5060016;28;20079;-59
2022/06/21 12:25:13;;;;;;;0.82;0.20;;;25.60;45.70;;;;;;5059200;28;20025;-58
2022/06/21 12:27:38;;;;;;;1.30;0.22;;;25.80;46.10;;;;;;5065077;28;20019;-59
2022/06/21 12:30:16;;;;;;;1.13;0.40;;;25.90;46.10;;;;;;5070039;28;20017;-59
2022/06/21 12:32:42;;;;;;;2.20;0.50;;;26.10;45.90;;;;;;5102683;27;20012;-59
2022/06/21 12:35:17;;;;;;;1.65;0.30;;;26.00;45.60;;;;;;5064132;28;20028;-59
2022/06/21 12:37:46;;;;;;;1.00;0.30;;;26.10;45.80;;;;;;5064335;28;20103;-58
2022/06/21 12:40:20;;;;;;;3.55;0.60;;;26.10;45.80;;;;;;5059519;28;20021;-59
2022/06/21 12:42:58;;;;;;;1.25;0.40;;;26.10;45.40;;;;;;5063149;28;20036;-59
2022/06/21 12:45:38;;;;;;;1.80;0.50;;;26.10;45.80;;;;;;5056493;28;20028;-59
2022/06/21 12:48:32;;;;;;;1.48;0.50;;;26.10;45.90;;;;;;5065315;28;20048;-59
2022/06/21 12:51:11;;;;;;;1.73;0.40;;;26.10;46.40;;;;;;5075036;28;20108;-58
2022/06/21 12:53:47;;;;;;;;;;;26.20;46.70;;;;;;5072194;28;20095;-59
2022/06/21 12:56:31;;;;;;;3.80;0.60;;;26.20;47.00;;;;;;5092130;28;19916;-59
2022/06/21 12:59:06;;;;;;;2.30;0.60;;;26.30;46.90;;;;;;5066858;28;20025;-59
2022/06/21 13:01:59;;;;;;;1.88;0.40;;;26.40;46.80;;;;;;5063675;28;20051;-59
2022/06/21 13:04:39;;;;;;;1.40;0.77;;;26.60;46.60;;;;;;5062575;28;20112;-59
2022/06/21 13:07:23;;;;;;;1.83;0.60;;;26.70;46.10;;;;;;5064703;28;20040;-59
2022/06/21 13:09:48;;;;;;;1.30;0.50;;;26.60;45.90;;;;;;5074872;28;20060;-59
2022/06/21 13:12:42;;;;;;;2.28;0.50;;;26.60;45.60;;;;;;5065915;28;20055;-59
2022/06/21 13:15:54;;;;;;;1.40;0.40;;;26.70;45.00;;;;;;5068249;28;20107;-59
2022/06/21 13:19:05;;;;;;;2.05;0.50;;;26.70;45.50;;;;;;5068887;28;20515;-59
2022/06/21 13:21:50;;;;;;;1.95;0.60;;;26.80;45.80;;;;;;5074382;28;20454;-59
2022/06/21 13:24:55;;;;;;;2.28;0.50;;;26.80;45.50;;;;;;5077228;28;20107;-59
2022/06/21 13:27:55;;;;;;;2.40;0.70;;;26.90;45.00;;;;;;5077489;28;20044;-59
2022/06/21 13:30:47;;;;;;;3.13;0.40;;;26.90;43.80;;;;;;5075467;28;20032;-59
2022/06/21 13:33:57;;;;;;;0.98;0.38;;;27.00;44.00;;;;;;5064258;28;20021;-59
2022/06/21 13:37:15;;;;;;;0.75;0.30;;;27.10;43.80;;;;;;5048891;28;20051;-59
2022/06/21 13:40:06;;;;;;;2.20;0.20;;;27.20;44.00;;;;;;5051616;28;20037;-59
2022/06/21 13:42:38;;;;;;;1.50;0.30;;;27.30;44.10;;;;;;5067382;28;20143;-59
2022/06/21 13:45:13;;;;;;;1.45;0.40;;;27.30;44.50;;;;;;5068759;28;20498;-59
2022/06/21 13:47:53;;;;;;;1.40;0.40;;;27.40;43.00;;;;;;5071871;28;20486;-59
2022/06/21 13:50:56;;;;;;;2.40;0.45;;;27.30;42.60;;;;;;5074608;28;20021;-59
2022/06/21 13:53:37;;;;;;;1.63;0.40;;;27.30;42.60;;;;;;5071969;28;20027;-59
2022/06/21 13:56:07;;;;;;;3.20;1.02;;;27.20;43.10;;;;;;5074081;28;20487;-59
2022/06/21 13:58:39;;;;;;;1.98;0.50;;;27.20;43.20;;;;;;5069881;28;20020;-59
2022/06/21 14:01:30;;;;;;;1.92;0.50;;;27.20;43.00;;;;;;5063906;28;20025;-59
2022/06/21 14:04:17;;;;;;;1.92;0.40;;;27.20;43.10;;;;;;5067027;28;20535;-59
2022/06/21 14:07:11;;;;;;;1.13;0.50;;;27.20;43.50;;;;;;5076746;28;20051;-59
2022/06/21 14:10:18;;;;;;;1.95;0.57;;;27.10;43.80;;;;;;5075132;28;20009;-59
2022/06/21 14:13:09;;;;;;;1.45;0.40;;;27.10;44.10;;;;;;5082307;28;20090;-59
2022/06/21 14:15:48;;;;;;;1.20;0.40;;;26.90;43.90;;;;;;5069824;28;20031;-59
2022/06/21 14:18:28;;;;;;;1.05;0.25;;;26.90;44.30;;;;;;5081702;28;20095;-59
2022/06/21 14:21:22;;;;;;;0.77;0.30;;;26.90;44.40;;;;;;5085771;28;20027;-59
2022/06/21 14:24:10;;;;;;;1.88;0.50;;;26.70;44.50;;;;;;5053879;28;20032;-59
2022/06/21 14:27:03;;;;;;;1.50;0.30;;;26.50;44.90;;;;;;5081257;28;20016;-59
2022/06/21 14:29:54;;;;;;;1.00;0.30;;;26.50;45.00;;;;;;5069876;28;20031;-59
2022/06/21 14:32:26;;;;;;;0.68;0.30;;;26.60;45.10;;;;;;5078859;28;20023;-59
2022/06/21 14:35:03;;;;;;;1.70;0.40;;;26.50;44.80;;;;;;5076502;28;20032;-59